sensor_id;sensor_type;location;lat;lon;timestamp;P1;durP1;ratioP1;P2;durP2;ratioP2
10465;SDS011;5280;42.600;23.556;2023-05-29T00:04:18;3.40;;;3.00;;
10465;SDS011;5280;42.600;23.556;2023-05-29T00:06:46;3.27;;;2.60;;
10465;SDS011;5280;42.600;23.556;2023-05-29T00:09:13;6.30;;;3.00;;
10465;SDS011;5280;42.600;23.556;2023-05-29T00:11:41;2.90;;;2.70;;
10465;SDS011;5280;42.600;23.556;2023-05-29T00:14:08;4.67;;;3.00;;
10465;SDS011;5280;42.600;23.556;2023-05-29T00:16:38;7.23;;;3.17;;
10465;SDS011;5280;42.600;23.556;2023-05-29T00:19:04;5.97;;;3.03;;
10465;SDS011;5280;42.600;23.556;2023-05-29T00:21:31;5.60;;;3.00;;
10465;SDS011;5280;42.600;23.556;2023-05-29T00:23:58;5.03;;;3.10;;
10465;SDS011;5280;42.600;23.556;2023-05-29T00:26:25;5.77;;;3.20;;
10465;SDS011;5280;42.600;23.556;2023-05-29T00:28:53;6.77;;;3.03;;
10465;SDS011;5280;42.600;23.556;2023-05-29T00:31:22;6.23;;;3.27;;
10465;SDS011;5280;42.600;23.556;2023-05-29T00:33:49;4.77;;;3.00;;
10465;SDS011;5280;42.600;23.556;2023-05-29T00:36:16;2.67;;;2.57;;
10465;SDS011;5280;42.600;23.556;2023-05-29T00:38:43;3.27;;;3.00;;
10465;SDS011;5280;42.600;23.556;2023-05-29T00:41:13;4.23;;;2.97;;
10465;SDS011;5280;42.600;23.556;2023-05-29T00:43:41;7.23;;;3.30;;
10465;SDS011;5280;42.600;23.556;2023-05-29T00:46:09;6.03;;;3.53;;
10465;SDS011;5280;42.600;23.556;2023-05-29T00:48:38;4.80;;;3.60;;
10465;SDS011;5280;42.600;23.556;2023-05-29T00:51:06;5.20;;;3.50;;
10465;SDS011;5280;42.600;23.556;2023-05-29T00:53:34;3.83;;;3.47;;
10465;SDS011;5280;42.600;23.556;2023-05-29T00:56:01;5.67;;;3.37;;
10465;SDS011;5280;42.600;23.556;2023-05-29T00:58:29;5.53;;;3.30;;
10465;SDS011;5280;42.600;23.556;2023-05-29T01:00:56;3.27;;;2.90;;
10465;SDS011;5280;42.600;23.556;2023-05-29T01:03:25;4.57;;;3.30;;
10465;SDS011;5280;42.600;23.556;2023-05-29T01:05:53;4.37;;;3.20;;
10465;SDS011;5280;42.600;23.556;2023-05-29T01:08:20;4.13;;;3.30;;
10465;SDS011;5280;42.600;23.556;2023-05-29T01:10:47;5.27;;;3.40;;
10465;SDS011;5280;42.600;23.556;2023-05-29T01:13:18;4.90;;;3.47;;
10465;SDS011;5280;42.600;23.556;2023-05-29T01:15:51;4.30;;;3.40;;
10465;SDS011;5280;42.600;23.556;2023-05-29T01:18:28;4.80;;;3.03;;
10465;SDS011;5280;42.600;23.556;2023-05-29T01:21:06;5.13;;;3.47;;
10465;SDS011;5280;42.600;23.556;2023-05-29T01:23:45;5.43;;;3.40;;
10465;SDS011;5280;42.600;23.556;2023-05-29T01:29:17;3.40;;;3.10;;
10465;SDS011;5280;42.600;23.556;2023-05-29T01:31:46;3.83;;;2.97;;
10465;SDS011;5280;42.600;23.556;2023-05-29T01:34:14;5.87;;;3.60;;
10465;SDS011;5280;42.600;23.556;2023-05-29T01:36:41;3.90;;;3.50;;
10465;SDS011;5280;42.600;23.556;2023-05-29T01:39:22;4.03;;;3.33;;
10465;SDS011;5280;42.600;23.556;2023-05-29T01:41:51;4.37;;;2.90;;
10465;SDS011;5280;42.600;23.556;2023-05-29T01:44:18;5.53;;;3.60;;
10465;SDS011;5280;42.600;23.556;2023-05-29T01:46:47;4.10;;;3.63;;
10465;SDS011;5280;42.600;23.556;2023-05-29T01:49:15;3.63;;;3.27;;
10465;SDS011;5280;42.600;23.556;2023-05-29T01:51:43;5.60;;;3.80;;
10465;SDS011;5280;42.600;23.556;2023-05-29T01:54:10;4.03;;;3.67;;
10465;SDS011;5280;42.600;23.556;2023-05-29T01:56:37;6.60;;;3.53;;
10465;SDS011;5280;42.600;23.556;2023-05-29T01:59:08;4.80;;;3.57;;
10465;SDS011;5280;42.600;23.556;2023-05-29T02:01:38;5.17;;;3.73;;
10465;SDS011;5280;42.600;23.556;2023-05-29T02:04:05;3.37;;;3.17;;
10465;SDS011;5280;42.600;23.556;2023-05-29T02:06:32;6.07;;;3.37;;
10465;SDS011;5280;42.600;23.556;2023-05-29T02:08:59;4.90;;;3.83;;
10465;SDS011;5280;42.600;23.556;2023-05-29T02:11:26;3.80;;;3.40;;
10465;SDS011;5280;42.600;23.556;2023-05-29T02:13:53;4.73;;;3.70;;
10465;SDS011;5280;42.600;23.556;2023-05-29T02:16:22;4.73;;;3.37;;
10465;SDS011;5280;42.600;23.556;2023-05-29T02:18:49;5.27;;;3.60;;
10465;SDS011;5280;42.600;23.556;2023-05-29T02:21:16;4.77;;;3.40;;
10465;SDS011;5280;42.600;23.556;2023-05-29T02:23:43;5.47;;;3.67;;
10465;SDS011;5280;42.600;23.556;2023-05-29T02:26:11;6.60;;;3.67;;
10465;SDS011;5280;42.600;23.556;2023-05-29T02:28:39;4.50;;;3.60;;
10465;SDS011;5280;42.600;23.556;2023-05-29T02:31:06;3.50;;;3.20;;
10465;SDS011;5280;42.600;23.556;2023-05-29T02:33:34;4.47;;;3.40;;
10465;SDS011;5280;42.600;23.556;2023-05-29T02:36:01;8.10;;;3.60;;
10465;SDS011;5280;42.600;23.556;2023-05-29T02:38:27;4.07;;;3.73;;
10465;SDS011;5280;42.600;23.556;2023-05-29T02:40:54;5.43;;;3.37;;
10465;SDS011;5280;42.600;23.556;2023-05-29T02:43:24;4.33;;;3.93;;
10465;SDS011;5280;42.600;23.556;2023-05-29T02:46:00;7.43;;;4.20;;
10465;SDS011;5280;42.600;23.556;2023-05-29T02:49:13;7.07;;;4.00;;
10465;SDS011;5280;42.600;23.556;2023-05-29T02:51:40;5.73;;;3.40;;
10465;SDS011;5280;42.600;23.556;2023-05-29T02:54:07;5.07;;;3.60;;
10465;SDS011;5280;42.600;23.556;2023-05-29T02:56:34;4.37;;;3.63;;
10465;SDS011;5280;42.600;23.556;2023-05-29T02:59:01;5.17;;;3.90;;
10465;SDS011;5280;42.600;23.556;2023-05-29T03:01:27;6.50;;;3.73;;
10465;SDS011;5280;42.600;23.556;2023-05-29T03:03:54;3.93;;;3.63;;
10465;SDS011;5280;42.600;23.556;2023-05-29T03:06:23;4.60;;;4.00;;
10465;SDS011;5280;42.600;23.556;2023-05-29T03:08:50;4.83;;;3.17;;
10465;SDS011;5280;42.600;23.556;2023-05-29T03:11:17;5.27;;;3.73;;
10465;SDS011;5280;42.600;23.556;2023-05-29T03:13:44;4.47;;;3.60;;
10465;SDS011;5280;42.600;23.556;2023-05-29T03:16:12;4.10;;;3.80;;
10465;SDS011;5280;42.600;23.556;2023-05-29T03:18:39;7.33;;;3.90;;
10465;SDS011;5280;42.600;23.556;2023-05-29T03:21:06;4.33;;;3.70;;
10465;SDS011;5280;42.600;23.556;2023-05-29T03:23:34;5.43;;;3.50;;
10465;SDS011;5280;42.600;23.556;2023-05-29T03:26:01;4.00;;;3.20;;
10465;SDS011;5280;42.600;23.556;2023-05-29T03:28:28;4.20;;;3.90;;
10465;SDS011;5280;42.600;23.556;2023-05-29T03:30:55;6.33;;;3.70;;
10465;SDS011;5280;42.600;23.556;2023-05-29T03:33:22;5.00;;;3.67;;
10465;SDS011;5280;42.600;23.556;2023-05-29T03:35:49;3.73;;;3.47;;
10465;SDS011;5280;42.600;23.556;2023-05-29T03:38:16;5.37;;;3.60;;
10465;SDS011;5280;42.600;23.556;2023-05-29T03:40:44;4.97;;;4.00;;
10465;SDS011;5280;42.600;23.556;2023-05-29T03:43:11;4.30;;;3.90;;
10465;SDS011;5280;42.600;23.556;2023-05-29T03:45:38;4.17;;;3.80;;
10465;SDS011;5280;42.600;23.556;2023-05-29T03:48:05;4.83;;;4.07;;
10465;SDS011;5280;42.600;23.556;2023-05-29T03:50:32;4.40;;;3.87;;
10465;SDS011;5280;42.600;23.556;2023-05-29T03:52:58;4.77;;;3.43;;
10465;SDS011;5280;42.600;23.556;2023-05-29T03:55:26;3.97;;;3.57;;
10465;SDS011;5280;42.600;23.556;2023-05-29T03:57:54;4.40;;;3.50;;
10465;SDS011;5280;42.600;23.556;2023-05-29T04:00:21;4.50;;;3.40;;
10465;SDS011;5280;42.600;23.556;2023-05-29T04:02:48;3.90;;;3.07;;
10465;SDS011;5280;42.600;23.556;2023-05-29T04:05:15;4.10;;;3.20;;
10465;SDS011;5280;42.600;23.556;2023-05-29T04:07:45;3.83;;;3.53;;
10465;SDS011;5280;42.600;23.556;2023-05-29T04:10:11;4.23;;;3.57;;
10465;SDS011;5280;42.600;23.556;2023-05-29T04:12:38;3.40;;;3.10;;
10465;SDS011;5280;42.600;23.556;2023-05-29T04:15:07;3.53;;;3.23;;
10465;SDS011;5280;42.600;23.556;2023-05-29T04:17:35;4.83;;;3.13;;
10465;SDS011;5280;42.600;23.556;2023-05-29T04:20:02;4.53;;;3.20;;
10465;SDS011;5280;42.600;23.556;2023-05-29T04:22:33;4.53;;;3.53;;
10465;SDS011;5280;42.600;23.556;2023-05-29T04:25:01;3.40;;;3.10;;
10465;SDS011;5280;42.600;23.556;2023-05-29T04:27:28;4.50;;;3.00;;
10465;SDS011;5280;42.600;23.556;2023-05-29T04:29:57;3.30;;;3.00;;
10465;SDS011;5280;42.600;23.556;2023-05-29T04:32:26;3.90;;;3.40;;
10465;SDS011;5280;42.600;23.556;2023-05-29T04:34:53;3.57;;;2.63;;
10465;SDS011;5280;42.600;23.556;2023-05-29T04:37:21;5.43;;;3.10;;
10465;SDS011;5280;42.600;23.556;2023-05-29T04:39:54;3.57;;;3.23;;
10465;SDS011;5280;42.600;23.556;2023-05-29T04:42:22;2.87;;;2.67;;
10465;SDS011;5280;42.600;23.556;2023-05-29T04:44:50;7.57;;;4.17;;
10465;SDS011;5280;42.600;23.556;2023-05-29T04:47:17;12.53;;;3.73;;
10465;SDS011;5280;42.600;23.556;2023-05-29T04:49:46;5.73;;;3.60;;
10465;SDS011;5280;42.600;23.556;2023-05-29T04:52:15;5.80;;;3.83;;
10465;SDS011;5280;42.600;23.556;2023-05-29T04:54:42;3.40;;;2.90;;
10465;SDS011;5280;42.600;23.556;2023-05-29T04:57:09;4.13;;;3.20;;
10465;SDS011;5280;42.600;23.556;2023-05-29T04:59:36;3.43;;;3.13;;
10465;SDS011;5280;42.600;23.556;2023-05-29T05:02:04;3.43;;;3.13;;
10465;SDS011;5280;42.600;23.556;2023-05-29T05:04:31;3.37;;;3.10;;
10465;SDS011;5280;42.600;23.556;2023-05-29T05:06:59;3.23;;;2.90;;
10465;SDS011;5280;42.600;23.556;2023-05-29T05:09:28;3.37;;;2.97;;
10465;SDS011;5280;42.600;23.556;2023-05-29T05:11:55;3.80;;;3.30;;
10465;SDS011;5280;42.600;23.556;2023-05-29T05:14:22;5.70;;;3.20;;
10465;SDS011;5280;42.600;23.556;2023-05-29T05:16:48;3.53;;;3.23;;
10465;SDS011;5280;42.600;23.556;2023-05-29T05:19:16;3.43;;;2.70;;
10465;SDS011;5280;42.600;23.556;2023-05-29T05:21:42;6.17;;;2.90;;
10465;SDS011;5280;42.600;23.556;2023-05-29T05:24:10;3.73;;;2.60;;
10465;SDS011;5280;42.600;23.556;2023-05-29T05:26:38;3.77;;;2.90;;
10465;SDS011;5280;42.600;23.556;2023-05-29T05:29:04;3.93;;;2.53;;
10465;SDS011;5280;42.600;23.556;2023-05-29T05:31:31;3.10;;;2.80;;
10465;SDS011;5280;42.600;23.556;2023-05-29T05:33:58;3.20;;;2.83;;
10465;SDS011;5280;42.600;23.556;2023-05-29T05:36:25;3.23;;;2.63;;
10465;SDS011;5280;42.600;23.556;2023-05-29T05:38:52;2.77;;;2.57;;
10465;SDS011;5280;42.600;23.556;2023-05-29T05:41:20;3.60;;;2.97;;
10465;SDS011;5280;42.600;23.556;2023-05-29T05:43:47;2.80;;;2.60;;
10465;SDS011;5280;42.600;23.556;2023-05-29T05:46:16;2.87;;;2.67;;
10465;SDS011;5280;42.600;23.556;2023-05-29T05:48:45;2.80;;;2.50;;
10465;SDS011;5280;42.600;23.556;2023-05-29T05:51:12;2.47;;;2.27;;
10465;SDS011;5280;42.600;23.556;2023-05-29T05:53:39;3.00;;;2.70;;
10465;SDS011;5280;42.600;23.556;2023-05-29T05:56:06;2.60;;;2.40;;
10465;SDS011;5280;42.600;23.556;2023-05-29T05:58:34;2.47;;;2.27;;
10465;SDS011;5280;42.600;23.556;2023-05-29T06:01:01;2.63;;;2.30;;
10465;SDS011;5280;42.600;23.556;2023-05-29T06:03:28;3.07;;;2.77;;
10465;SDS011;5280;42.600;23.556;2023-05-29T06:05:59;2.57;;;2.37;;
10465;SDS011;5280;42.600;23.556;2023-05-29T06:08:27;4.07;;;3.73;;
10465;SDS011;5280;42.600;23.556;2023-05-29T06:10:57;5.77;;;4.33;;
10465;SDS011;5280;42.600;23.556;2023-05-29T06:13:24;4.20;;;3.80;;
10465;SDS011;5280;42.600;23.556;2023-05-29T06:15:53;4.20;;;3.83;;
10465;SDS011;5280;42.600;23.556;2023-05-29T06:18:21;6.27;;;4.43;;
10465;SDS011;5280;42.600;23.556;2023-05-29T06:20:48;5.03;;;4.27;;
10465;SDS011;5280;42.600;23.556;2023-05-29T06:23:15;4.67;;;4.27;;
10465;SDS011;5280;42.600;23.556;2023-05-29T06:25:43;5.13;;;4.23;;
10465;SDS011;5280;42.600;23.556;2023-05-29T06:28:14;5.60;;;4.07;;
10465;SDS011;5280;42.600;23.556;2023-05-29T06:30:42;4.43;;;3.77;;
10465;SDS011;5280;42.600;23.556;2023-05-29T06:33:11;6.20;;;4.80;;
10465;SDS011;5280;42.600;23.556;2023-05-29T06:35:38;9.13;;;5.57;;
10465;SDS011;5280;42.600;23.556;2023-05-29T06:38:06;4.83;;;4.37;;
10465;SDS011;5280;42.600;23.556;2023-05-29T06:40:33;8.47;;;5.03;;
10465;SDS011;5280;42.600;23.556;2023-05-29T06:43:00;5.67;;;3.93;;
10465;SDS011;5280;42.600;23.556;2023-05-29T06:45:28;3.93;;;3.53;;
10465;SDS011;5280;42.600;23.556;2023-05-29T06:47:56;5.27;;;3.67;;
10465;SDS011;5280;42.600;23.556;2023-05-29T06:50:33;4.73;;;3.70;;
10465;SDS011;5280;42.600;23.556;2023-05-29T06:53:04;3.70;;;3.40;;
10465;SDS011;5280;42.600;23.556;2023-05-29T06:55:35;3.53;;;3.13;;
10465;SDS011;5280;42.600;23.556;2023-05-29T06:58:02;4.47;;;3.23;;
10465;SDS011;5280;42.600;23.556;2023-05-29T07:00:40;4.63;;;3.67;;
10465;SDS011;5280;42.600;23.556;2023-05-29T07:03:24;4.63;;;3.57;;
10465;SDS011;5280;42.600;23.556;2023-05-29T07:05:54;5.83;;;3.70;;
10465;SDS011;5280;42.600;23.556;2023-05-29T07:08:21;3.80;;;3.50;;
10465;SDS011;5280;42.600;23.556;2023-05-29T07:10:48;7.10;;;3.57;;
10465;SDS011;5280;42.600;23.556;2023-05-29T07:13:25;3.23;;;2.70;;
10465;SDS011;5280;42.600;23.556;2023-05-29T07:16:00;3.20;;;2.90;;
10465;SDS011;5280;42.600;23.556;2023-05-29T07:18:29;4.87;;;3.20;;
10465;SDS011;5280;42.600;23.556;2023-05-29T07:23:43;3.30;;;2.67;;
10465;SDS011;5280;42.600;23.556;2023-05-29T07:26:10;2.80;;;2.27;;
10465;SDS011;5280;42.600;23.556;2023-05-29T07:28:37;3.03;;;2.73;;
10465;SDS011;5280;42.600;23.556;2023-05-29T07:31:04;2.83;;;2.63;;
10465;SDS011;5280;42.600;23.556;2023-05-29T07:33:31;2.70;;;2.50;;
10465;SDS011;5280;42.600;23.556;2023-05-29T07:35:58;2.83;;;2.63;;
10465;SDS011;5280;42.600;23.556;2023-05-29T07:38:26;2.80;;;2.60;;
10465;SDS011;5280;42.600;23.556;2023-05-29T07:40:53;2.70;;;2.47;;
10465;SDS011;5280;42.600;23.556;2023-05-29T07:43:20;4.47;;;4.07;;
10465;SDS011;5280;42.600;23.556;2023-05-29T07:45:47;3.73;;;3.17;;
10465;SDS011;5280;42.600;23.556;2023-05-29T07:48:14;3.10;;;2.90;;
10465;SDS011;5280;42.600;23.556;2023-05-29T07:50:40;2.83;;;2.57;;
10465;SDS011;5280;42.600;23.556;2023-05-29T07:53:07;2.60;;;2.40;;
10465;SDS011;5280;42.600;23.556;2023-05-29T07:55:36;2.67;;;2.43;;
10465;SDS011;5280;42.600;23.556;2023-05-29T07:58:03;2.70;;;2.50;;
10465;SDS011;5280;42.600;23.556;2023-05-29T08:00:30;2.77;;;2.57;;
10465;SDS011;5280;42.600;23.556;2023-05-29T08:02:56;2.70;;;2.50;;
10465;SDS011;5280;42.600;23.556;2023-05-29T08:05:23;2.57;;;2.37;;
10465;SDS011;5280;42.600;23.556;2023-05-29T08:07:50;2.60;;;2.30;;
10465;SDS011;5280;42.600;23.556;2023-05-29T08:10:17;2.90;;;2.70;;
10465;SDS011;5280;42.600;23.556;2023-05-29T08:12:45;2.53;;;2.33;;
10465;SDS011;5280;42.600;23.556;2023-05-29T08:15:12;2.57;;;2.40;;
10465;SDS011;5280;42.600;23.556;2023-05-29T08:17:43;2.53;;;2.20;;
10465;SDS011;5280;42.600;23.556;2023-05-29T08:20:10;5.50;;;2.80;;
10465;SDS011;5280;42.600;23.556;2023-05-29T08:22:40;2.70;;;2.50;;
10465;SDS011;5280;42.600;23.556;2023-05-29T08:25:08;3.07;;;2.20;;
10465;SDS011;5280;42.600;23.556;2023-05-29T08:27:35;2.60;;;2.40;;
10465;SDS011;5280;42.600;23.556;2023-05-29T08:30:04;2.87;;;2.60;;
10465;SDS011;5280;42.600;23.556;2023-05-29T08:32:31;2.90;;;2.53;;
10465;SDS011;5280;42.600;23.556;2023-05-29T08:34:58;2.80;;;2.47;;
10465;SDS011;5280;42.600;23.556;2023-05-29T08:37:25;2.60;;;2.40;;
10465;SDS011;5280;42.600;23.556;2023-05-29T08:39:52;2.37;;;2.20;;
10465;SDS011;5280;42.600;23.556;2023-05-29T08:42:20;2.93;;;2.63;;
10465;SDS011;5280;42.600;23.556;2023-05-29T08:44:55;2.77;;;2.43;;
10465;SDS011;5280;42.600;23.556;2023-05-29T08:47:25;4.37;;;2.40;;
10465;SDS011;5280;42.600;23.556;2023-05-29T08:49:53;2.70;;;2.50;;
10465;SDS011;5280;42.600;23.556;2023-05-29T08:52:22;2.60;;;2.40;;
10465;SDS011;5280;42.600;23.556;2023-05-29T08:54:50;2.87;;;2.57;;
10465;SDS011;5280;42.600;23.556;2023-05-29T08:57:18;2.70;;;2.43;;
10465;SDS011;5280;42.600;23.556;2023-05-29T08:59:46;2.50;;;2.30;;
10465;SDS011;5280;42.600;23.556;2023-05-29T09:02:17;2.57;;;2.37;;
10465;SDS011;5280;42.600;23.556;2023-05-29T09:04:46;6.03;;;2.60;;
10465;SDS011;5280;42.600;23.556;2023-05-29T09:07:14;2.30;;;2.20;;
10465;SDS011;5280;42.600;23.556;2023-05-29T09:09:41;2.73;;;2.50;;
10465;SDS011;5280;42.600;23.556;2023-05-29T09:12:08;2.60;;;2.40;;
10465;SDS011;5280;42.600;23.556;2023-05-29T09:14:38;3.07;;;2.43;;
10465;SDS011;5280;42.600;23.556;2023-05-29T09:17:06;2.67;;;2.47;;
10465;SDS011;5280;42.600;23.556;2023-05-29T09:19:34;2.70;;;2.50;;
10465;SDS011;5280;42.600;23.556;2023-05-29T09:22:04;2.50;;;2.30;;
10465;SDS011;5280;42.600;23.556;2023-05-29T09:24:36;2.67;;;2.47;;
10465;SDS011;5280;42.600;23.556;2023-05-29T09:27:04;2.70;;;2.50;;
10465;SDS011;5280;42.600;23.556;2023-05-29T09:29:33;3.20;;;2.50;;
10465;SDS011;5280;42.600;23.556;2023-05-29T09:32:03;2.50;;;2.30;;
10465;SDS011;5280;42.600;23.556;2023-05-29T09:34:33;4.47;;;2.80;;
10465;SDS011;5280;42.600;23.556;2023-05-29T09:37:01;6.70;;;1.97;;
10465;SDS011;5280;42.600;23.556;2023-05-29T09:39:37;2.40;;;2.20;;
10465;SDS011;5280;42.600;23.556;2023-05-29T09:42:11;2.50;;;2.30;;
10465;SDS011;5280;42.600;23.556;2023-05-29T09:44:39;2.33;;;2.23;;
10465;SDS011;5280;42.600;23.556;2023-05-29T09:47:06;3.17;;;2.60;;
10465;SDS011;5280;42.600;23.556;2023-05-29T09:49:33;2.93;;;2.43;;
10465;SDS011;5280;42.600;23.556;2023-05-29T09:52:03;2.47;;;2.20;;
10465;SDS011;5280;42.600;23.556;2023-05-29T09:54:34;2.67;;;2.47;;
10465;SDS011;5280;42.600;23.556;2023-05-29T09:57:03;2.93;;;2.50;;
10465;SDS011;5280;42.600;23.556;2023-05-29T09:59:31;3.90;;;2.60;;
10465;SDS011;5280;42.600;23.556;2023-05-29T10:02:01;2.83;;;2.33;;
10465;SDS011;5280;42.600;23.556;2023-05-29T10:04:29;2.50;;;2.30;;
10465;SDS011;5280;42.600;23.556;2023-05-29T10:06:57;2.00;;;1.90;;
10465;SDS011;5280;42.600;23.556;2023-05-29T10:09:26;2.50;;;2.30;;
10465;SDS011;5280;42.600;23.556;2023-05-29T10:11:55;2.53;;;2.33;;
10465;SDS011;5280;42.600;23.556;2023-05-29T10:14:27;3.43;;;2.20;;
10465;SDS011;5280;42.600;23.556;2023-05-29T10:16:58;2.33;;;2.20;;
10465;SDS011;5280;42.600;23.556;2023-05-29T10:19:30;3.73;;;2.63;;
10465;SDS011;5280;42.600;23.556;2023-05-29T10:22:00;2.50;;;2.30;;
10465;SDS011;5280;42.600;23.556;2023-05-29T10:24:29;2.83;;;2.63;;
10465;SDS011;5280;42.600;23.556;2023-05-29T10:26:59;2.30;;;2.20;;
10465;SDS011;5280;42.600;23.556;2023-05-29T10:29:27;2.60;;;2.40;;
10465;SDS011;5280;42.600;23.556;2023-05-29T10:32:04;3.07;;;2.53;;
10465;SDS011;5280;42.600;23.556;2023-05-29T10:34:39;2.70;;;2.50;;
10465;SDS011;5280;42.600;23.556;2023-05-29T10:37:15;2.90;;;2.63;;
10465;SDS011;5280;42.600;23.556;2023-05-29T10:39:49;2.53;;;2.33;;
10465;SDS011;5280;42.600;23.556;2023-05-29T10:45:11;2.83;;;2.60;;
10465;SDS011;5280;42.600;23.556;2023-05-29T10:48:43;2.60;;;2.40;;
10465;SDS011;5280;42.600;23.556;2023-05-29T10:51:25;2.67;;;2.40;;
10465;SDS011;5280;42.600;23.556;2023-05-29T10:53:56;3.20;;;2.70;;
10465;SDS011;5280;42.600;23.556;2023-05-29T10:56:24;3.20;;;2.80;;
10465;SDS011;5280;42.600;23.556;2023-05-29T10:58:57;2.23;;;2.13;;
10465;SDS011;5280;42.600;23.556;2023-05-29T11:01:27;2.33;;;2.17;;
10465;SDS011;5280;42.600;23.556;2023-05-29T11:06:57;3.70;;;2.40;;
10465;SDS011;5280;42.600;23.556;2023-05-29T11:09:27;3.07;;;2.60;;
10465;SDS011;5280;42.600;23.556;2023-05-29T11:12:12;3.00;;;2.53;;
10465;SDS011;5280;42.600;23.556;2023-05-29T11:14:52;4.10;;;2.80;;
10465;SDS011;5280;42.600;23.556;2023-05-29T11:17:42;2.67;;;2.47;;
10465;SDS011;5280;42.600;23.556;2023-05-29T11:20:25;2.50;;;2.30;;
10465;SDS011;5280;42.600;23.556;2023-05-29T11:23:02;2.90;;;2.57;;
10465;SDS011;5280;42.600;23.556;2023-05-29T11:25:33;3.03;;;2.83;;
10465;SDS011;5280;42.600;23.556;2023-05-29T11:28:02;3.27;;;2.97;;
10465;SDS011;5280;42.600;23.556;2023-05-29T11:30:42;2.60;;;2.50;;
10465;SDS011;5280;42.600;23.556;2023-05-29T11:33:11;3.20;;;2.60;;
10465;SDS011;5280;42.600;23.556;2023-05-29T11:35:54;3.53;;;2.73;;
10465;SDS011;5280;42.600;23.556;2023-05-29T11:38:23;3.33;;;2.83;;
10465;SDS011;5280;42.600;23.556;2023-05-29T11:40:51;3.00;;;2.70;;
10465;SDS011;5280;42.600;23.556;2023-05-29T11:43:19;2.93;;;2.73;;
10465;SDS011;5280;42.600;23.556;2023-05-29T11:45:51;3.07;;;2.87;;
10465;SDS011;5280;42.600;23.556;2023-05-29T11:48:19;3.73;;;3.30;;
10465;SDS011;5280;42.600;23.556;2023-05-29T11:50:47;4.40;;;2.80;;
10465;SDS011;5280;42.600;23.556;2023-05-29T11:53:13;2.90;;;2.70;;
10465;SDS011;5280;42.600;23.556;2023-05-29T11:55:40;3.47;;;3.23;;
10465;SDS011;5280;42.600;23.556;2023-05-29T11:58:07;3.57;;;3.30;;
10465;SDS011;5280;42.600;23.556;2023-05-29T12:00:35;3.30;;;3.10;;
10465;SDS011;5280;42.600;23.556;2023-05-29T12:03:04;3.10;;;2.90;;
10465;SDS011;5280;42.600;23.556;2023-05-29T12:05:32;3.20;;;2.90;;
10465;SDS011;5280;42.600;23.556;2023-05-29T12:08:10;3.30;;;3.00;;
10465;SDS011;5280;42.600;23.556;2023-05-29T12:10:37;2.77;;;2.60;;
10465;SDS011;5280;42.600;23.556;2023-05-29T12:13:12;3.70;;;2.83;;
10465;SDS011;5280;42.600;23.556;2023-05-29T12:15:43;3.70;;;2.87;;
10465;SDS011;5280;42.600;23.556;2023-05-29T12:18:12;2.83;;;2.63;;
10465;SDS011;5280;42.600;23.556;2023-05-29T12:20:39;2.90;;;2.70;;
10465;SDS011;5280;42.600;23.556;2023-05-29T12:23:08;2.90;;;2.70;;
10465;SDS011;5280;42.600;23.556;2023-05-29T12:25:37;3.00;;;2.77;;
10465;SDS011;5280;42.600;23.556;2023-05-29T12:28:04;2.93;;;2.73;;
10465;SDS011;5280;42.600;23.556;2023-05-29T12:30:36;4.43;;;2.77;;
10465;SDS011;5280;42.600;23.556;2023-05-29T12:33:05;2.83;;;2.50;;
10465;SDS011;5280;42.600;23.556;2023-05-29T12:35:34;3.30;;;2.53;;
10465;SDS011;5280;42.600;23.556;2023-05-29T12:38:01;2.53;;;2.33;;
10465;SDS011;5280;42.600;23.556;2023-05-29T12:40:31;2.50;;;2.30;;
10465;SDS011;5280;42.600;23.556;2023-05-29T12:42:59;3.30;;;2.37;;
10465;SDS011;5280;42.600;23.556;2023-05-29T12:45:28;2.33;;;2.13;;
10465;SDS011;5280;42.600;23.556;2023-05-29T12:47:56;2.60;;;2.40;;
10465;SDS011;5280;42.600;23.556;2023-05-29T12:50:24;2.20;;;2.10;;
10465;SDS011;5280;42.600;23.556;2023-05-29T12:52:57;2.90;;;2.40;;
10465;SDS011;5280;42.600;23.556;2023-05-29T12:55:25;2.80;;;2.47;;
10465;SDS011;5280;42.600;23.556;2023-05-29T12:57:53;2.77;;;2.37;;
10465;SDS011;5280;42.600;23.556;2023-05-29T13:00:20;2.70;;;2.33;;
10465;SDS011;5280;42.600;23.556;2023-05-29T13:02:48;5.47;;;2.73;;
10465;SDS011;5280;42.600;23.556;2023-05-29T13:05:15;2.43;;;2.17;;
10465;SDS011;5280;42.600;23.556;2023-05-29T13:07:44;2.43;;;2.23;;
10465;SDS011;5280;42.600;23.556;2023-05-29T13:10:14;3.20;;;2.10;;
10465;SDS011;5280;42.600;23.556;2023-05-29T13:12:41;3.03;;;2.07;;
10465;SDS011;5280;42.600;23.556;2023-05-29T13:15:09;3.07;;;2.10;;
10465;SDS011;5280;42.600;23.556;2023-05-29T13:17:37;2.00;;;1.90;;
10465;SDS011;5280;42.600;23.556;2023-05-29T13:20:06;2.10;;;1.80;;
10465;SDS011;5280;42.600;23.556;2023-05-29T13:22:35;2.03;;;1.90;;
10465;SDS011;5280;42.600;23.556;2023-05-29T13:25:02;1.90;;;1.80;;
10465;SDS011;5280;42.600;23.556;2023-05-29T13:27:33;2.00;;;1.90;;
10465;SDS011;5280;42.600;23.556;2023-05-29T13:30:01;2.10;;;2.00;;
10465;SDS011;5280;42.600;23.556;2023-05-29T13:32:28;2.20;;;2.10;;
10465;SDS011;5280;42.600;23.556;2023-05-29T13:34:55;2.97;;;2.47;;
10465;SDS011;5280;42.600;23.556;2023-05-29T13:37:22;2.97;;;2.50;;
10465;SDS011;5280;42.600;23.556;2023-05-29T13:39:49;8.23;;;3.37;;
10465;SDS011;5280;42.600;23.556;2023-05-29T13:42:17;8.47;;;3.03;;
10465;SDS011;5280;42.600;23.556;2023-05-29T13:44:46;3.77;;;2.97;;
10465;SDS011;5280;42.600;23.556;2023-05-29T13:47:13;3.30;;;2.87;;
10465;SDS011;5280;42.600;23.556;2023-05-29T13:49:40;5.47;;;2.97;;
10465;SDS011;5280;42.600;23.556;2023-05-29T13:52:07;3.67;;;2.57;;
10465;SDS011;5280;42.600;23.556;2023-05-29T13:54:34;2.87;;;2.60;;
10465;SDS011;5280;42.600;23.556;2023-05-29T13:57:01;4.10;;;2.70;;
10465;SDS011;5280;42.600;23.556;2023-05-29T13:59:29;4.23;;;2.80;;
10465;SDS011;5280;42.600;23.556;2023-05-29T14:01:58;2.13;;;2.03;;
10465;SDS011;5280;42.600;23.556;2023-05-29T14:04:25;3.50;;;2.17;;
10465;SDS011;5280;42.600;23.556;2023-05-29T14:06:52;4.80;;;2.30;;
10465;SDS011;5280;42.600;23.556;2023-05-29T14:09:19;2.77;;;2.30;;
10465;SDS011;5280;42.600;23.556;2023-05-29T14:11:52;3.23;;;2.43;;
10465;SDS011;5280;42.600;23.556;2023-05-29T14:14:20;2.70;;;2.50;;
10465;SDS011;5280;42.600;23.556;2023-05-29T14:16:47;5.30;;;2.70;;
10465;SDS011;5280;42.600;23.556;2023-05-29T14:19:16;2.70;;;2.50;;
10465;SDS011;5280;42.600;23.556;2023-05-29T14:21:43;3.50;;;2.20;;
10465;SDS011;5280;42.600;23.556;2023-05-29T14:24:13;2.33;;;2.13;;
10465;SDS011;5280;42.600;23.556;2023-05-29T14:26:40;2.53;;;2.33;;
10465;SDS011;5280;42.600;23.556;2023-05-29T14:29:10;2.50;;;2.30;;
10465;SDS011;5280;42.600;23.556;2023-05-29T14:31:38;2.33;;;2.23;;
10465;SDS011;5280;42.600;23.556;2023-05-29T14:34:05;2.53;;;2.43;;
10465;SDS011;5280;42.600;23.556;2023-05-29T14:36:33;2.50;;;2.30;;
10465;SDS011;5280;42.600;23.556;2023-05-29T14:39:00;2.60;;;2.40;;
10465;SDS011;5280;42.600;23.556;2023-05-29T14:41:27;2.97;;;2.47;;
10465;SDS011;5280;42.600;23.556;2023-05-29T14:43:57;3.40;;;2.40;;
10465;SDS011;5280;42.600;23.556;2023-05-29T14:46:24;3.27;;;2.50;;
10465;SDS011;5280;42.600;23.556;2023-05-29T14:48:53;4.10;;;2.80;;
10465;SDS011;5280;42.600;23.556;2023-05-29T14:51:20;3.40;;;2.60;;
10465;SDS011;5280;42.600;23.556;2023-05-29T14:53:50;5.37;;;3.10;;
10465;SDS011;5280;42.600;23.556;2023-05-29T14:56:17;3.10;;;2.80;;
10465;SDS011;5280;42.600;23.556;2023-05-29T14:58:44;2.80;;;2.60;;
10465;SDS011;5280;42.600;23.556;2023-05-29T15:01:13;4.63;;;2.70;;
10465;SDS011;5280;42.600;23.556;2023-05-29T15:03:40;3.00;;;2.80;;
10465;SDS011;5280;42.600;23.556;2023-05-29T15:06:09;2.60;;;2.40;;
10465;SDS011;5280;42.600;23.556;2023-05-29T15:08:37;2.77;;;2.60;;
10465;SDS011;5280;42.600;23.556;2023-05-29T15:11:06;2.53;;;2.40;;
10465;SDS011;5280;42.600;23.556;2023-05-29T15:13:34;2.40;;;2.30;;